Time;durP1;ratioP1;P1;durP2;ratioP2;P2;SDS_P1;SDS_P2;PMS_P1;PMS_P2;Temp;Humidity;BMP_temperature;BMP_pressure;BME280_temperature;BME280_humidity;BME280_pressure;Samples;Min_cycle;Max_cycle;Signal;HPM_P1;HPM_P2
2021/06/26 00:19:35;;;;;;;18.92;14.58;;;;;;;15.81;86.60;100732.05;21053981;82;99898;-84
2021/06/26 00:49:36;;;;;;;18.32;14.00;;;;;;;15.49;86.51;100734.19;21076201;82;99857;-83
2021/06/26 01:19:37;;;;;;;21.50;16.02;;;;;;;15.14;87.36;100743.95;21098383;81;100313;-84
2021/06/26 01:49:39;;;;;;;20.43;15.28;;;;;;;14.89;88.26;100725.98;21077872;80;100044;-83
2021/06/26 02:19:40;;;;;;;21.07;15.58;;;;;;;14.66;88.71;100730.40;20789110;82;99766;-84
2021/06/26 02:49:41;;;;;;;17.17;13.25;;;;;;;14.43;89.17;100728.02;20950074;82;99848;-82
2021/06/26 03:19:42;;;;;;;19.48;14.95;;;;;;;14.37;89.99;100741.25;20942109;82;100083;-83
2021/06/26 03:49:43;;;;;;;21.85;17.37;;;;;;;14.61;91.32;100785.58;20927061;82;100021;-83
2021/06/26 04:19:43;;;;;;;25.30;18.45;;;;;;;15.40;92.99;100794.25;20838535;82;101305;-83
2021/06/26 04:49:44;;;;;;;25.43;21.00;;;;;;;16.26;92.63;100786.52;20748567;81;100335;-83
2021/06/26 05:19:46;;;;;;;22.10;16.65;;;;;;;17.47;91.93;100799.23;20898112;83;99976;-83
2021/06/26 05:49:46;;;;;;;20.20;17.00;;;;;;;18.56;88.98;100790.23;20912752;82;100047;-86
2021/06/26 06:19:47;;;;;;;15.63;13.00;;;;;;;20.83;86.19;100800.22;20823458;82;100124;-83
2021/06/26 06:49:48;;;;;;;17.48;14.75;;;;;;;23.36;78.19;100825.73;21136368;82;100335;-83
2021/06/26 07:19:49;;;;;;;16.48;12.05;;;;;;;23.80;73.84;100841.41;21192383;82;100395;-83
2021/06/26 07:49:50;;;;;;;18.12;13.48;;;;;;;24.61;70.64;100843.37;21189524;82;99764;-84
2021/06/26 08:19:51;;;;;;;14.75;10.88;;;;;;;24.46;68.54;100841.70;21207350;82;101025;-84
2021/06/26 08:49:53;;;;;;;11.85;8.88;;;;;;;24.72;66.76;100838.89;21212089;80;100211;-84
2021/06/26 09:19:57;;;;;;;6.42;4.22;;;;;;;26.16;63.10;100846.77;21213982;81;101485;-87
2021/06/26 09:50:14;;;;;;;7.12;4.05;;;;;;;27.41;57.69;100836.20;21186425;82;100111;-86
2021/06/26 10:20:18;;;;;;;7.22;4.42;;;;;;;30.73;51.80;100822.25;21127831;82;99538;-84
2021/06/26 10:50:22;;;;;;;11.20;4.83;;;;;;;34.06;43.64;100813.50;21118595;81;99375;-84
2021/06/26 11:20:24;;;;;;;7.30;4.08;;;;;;;33.89;41.03;100794.28;21131077;81;99585;-87
2021/06/26 11:50:25;;;;;;;5.60;3.72;;;;;;;33.07;38.49;100775.44;21117375;82;99674;-84
2021/06/26 12:20:36;;;;;;;5.95;3.70;;;;;;;33.21;38.52;100761.48;21333984;80;99603;-86
2021/06/26 13:21:13;;;;;;;4.67;3.02;;;;;;;32.09;35.63;100718.69;21118457;81;99287;-85
2021/06/26 13:51:14;;;;;;;5.97;3.50;;;;;;;31.86;35.12;100691.48;21108745;82;99678;-83
2021/06/26 14:21:14;;;;;;;4.03;2.52;;;;;;;31.34;33.87;100682.59;21355748;81;99393;-85
2021/06/26 14:51:16;;;;;;;;;;;;;;;30.59;34.12;100657.58;21336412;81;99671;-84
2021/06/26 15:21:18;;;;;;;4.70;2.73;;;;;;;29.91;33.45;100651.95;21369860;81;85781;-85
2021/06/26 15:51:20;;;;;;;4.87;2.93;;;;;;;29.09;35.02;100633.48;21369810;81;99639;-84
2021/06/26 16:21:20;;;;;;;4.22;2.80;;;;;;;27.91;35.71;100613.06;21223207;81;99248;-85
2021/06/26 16:51:21;;;;;;;5.78;2.80;;;;;;;26.39;37.47;100603.34;21188814;82;99445;-84
2021/06/26 17:21:22;;;;;;;5.93;3.47;;;;;;;25.61;38.24;100594.32;21201970;82;99719;-85
2021/06/26 17:51:24;;;;;;;6.40;3.15;;;;;;;24.89;39.05;100610.70;21190202;82;99609;-84
2021/06/26 18:21:26;;;;;;;9.15;2.80;;;;;;;24.43;41.09;100623.78;21072423;82;99488;-83
2021/06/26 18:51:27;;;;;;;7.33;3.20;;;;;;;24.08;41.46;100635.88;21067497;82;99621;-81
2021/06/26 19:21:32;;;;;;;5.37;2.80;;;;;;;23.41;43.66;100661.61;21059872;82;99702;-74
2021/06/26 19:51:33;;;;;;;9.83;5.28;;;;;;;22.62;43.92;100692.73;21054693;82;99887;-74
2021/06/26 20:21:34;;;;;;;6.22;3.55;;;;;;;21.45;45.78;100712.98;21319818;81;99871;-74
2021/06/26 20:51:39;;;;;;;7.20;3.80;;;;;;;20.19;48.30;100716.88;21083257;76;203320;-94
2021/06/26 21:21:40;;;;;;;6.27;3.70;;;;;;;18.79;51.43;100728.09;20876973;82;99490;-90
2021/06/26 21:51:41;;;;;;;7.80;3.50;;;;;;;17.91;53.96;100734.23;21052484;81;99360;-89
2021/06/26 22:21:41;;;;;;;7.08;3.72;;;;;;;17.04;57.09;100736.06;21002716;81;99432;-89
2021/06/26 22:51:42;;;;;;;;;;;;;;;16.55;59.36;100737.91;21012872;81;99484;-89
2021/06/26 23:21:43;;;;;;;8.08;4.15;;;;;;;16.05;62.96;100754.71;21042428;82;85435;-90
2021/06/26 23:51:46;;;;;;;10.15;4.62;;;;;;;15.71;63.19;100757.28;21130768;81;99667;-90
